This is the latest recevied weather packets stored in our database for station/object SV2ASS-2. If no packets are shown the sender has not sent any weather packets the latest 10 day(s).
| Time | Temp. | Humidity | Pressure | Rain* | Wind** | Luminosity | Snow |
|---|---|---|---|---|---|---|---|
| 1778146061 | 21.11° C | 46% | 1022.2 hPa | - | - | - | - |
| 1778145161 | 19.44° C | 54% | 1022 hPa | - | - | - | - |
| 1778144263 | 19.44° C | 53% | 1021.9 hPa | - | - | - | - |
| 1778143363 | 18.89° C | 53% | 1021.7 hPa | - | - | - | - |
| 1778142463 | 18.89° C | 51% | 1021.6 hPa | - | - | - | - |
| 1778141563 | 18.33° C | 55% | 1021.4 hPa | - | - | - | - |
| 1778140663 | 18.89° C | 55% | 1021.1 hPa | - | - | - | - |
| 1778139762 | 18.89° C | 54% | 1021.1 hPa | - | - | - | - |
| 1778138862 | 18.33° C | 56% | 1021 hPa | - | - | - | - |
| 1778137962 | 17.78° C | 56% | 1021 hPa | - | - | - | - |
| 1778137062 | 17.78° C | 57% | 1021.1 hPa | - | - | - | - |
| 1778136162 | 16.67° C | 57% | 1021.2 hPa | - | - | - | - |
| 1778135262 | 16.67° C | 58% | 1021.1 hPa | - | - | - | - |
| 1778134362 | 16.67° C | 60% | 1020.9 hPa | - | - | - | - |
| 1778133462 | 16.67° C | 57% | 1020.8 hPa | - | - | - | - |
| 1778132562 | 16.11° C | 60% | 1020.8 hPa | - | - | - | - |
| 1778131662 | 15° C | 66% | 1020.6 hPa | - | - | - | - |
| 1778130762 | 14.44° C | 68% | 1020.5 hPa | - | - | - | - |
| 1778129861 | 13.89° C | 68% | 1020.5 hPa | - | - | - | - |
| 1778128961 | 13.33° C | 68% | 1020.3 hPa | - | - | - | - |
| 1778128061 | 12.78° C | 67% | 1020.3 hPa | - | - | - | - |
| 1778127161 | 12.22° C | 66% | 1020.3 hPa | - | - | - | - |
| 1778126261 | 12.22° C | 65% | 1020 hPa | - | - | - | - |
| 1778125360 | 12.22° C | 65% | 1020 hPa | - | - | - | - |
| 1778124460 | 12.22° C | 63% | 1020 hPa | - | - | - | - |
* Rain since midnight (hover to see other rain measurements)
** Current wind speed in m/s (hover to see current wind gust speed)